Johann — D5HS1 — position and weather

sailwx.info

Track history (hours):
 
Tides and Currents Weather Stations Pressure Air Temp Water Temp Dewpoint Dewpoint Depression Visibility Wind Speed Wind Dir Waves Ship Positions

Johann

Last reported at 2017-Dec-16 11:01 UTC. Time now 2017-Dec-16 11:09 UTC.
Position N 50°38' E 000°33'.

Length 115 m; draft 6.1 m.

Type: Cargo ship. MMSI: 636092297.

Date/timePositionNaut miles runAvg speedWind from/ knotsBaromVisibWave heightAir tempDewpointWater temp
2017-Dec-16 11:01N 50°38' E 000°33'5 9.6
2017-Dec-16 10:30N 50°41' E 000°39'5 9.3
2017-Dec-16 10:00N 50°43' E 000°45'5 9.1
2017-Dec-16 09:30N 50°46' E 000°51'5 9.0
2017-Dec-16 09:00N 50°49' E 000°56'10 9.3
2017-Dec-16 07:55N 50°55' E 001°09'410.1
2017-Dec-16 07:30N 50°58' E 001°14'611.3
2017-Dec-16 07:00N 51°01' E 001°21'612.3
2017-Dec-16 06:30N 51°05' E 001°28'612.8
2017-Dec-16 06:00N 51°09' E 001°36'612.0
2017-Dec-16 05:30N 51°13' E 001°44'611.7
2017-Dec-16 05:00N 51°18' E 001°49'511.0
2017-Dec-16 04:30N 51°23' E 001°53'510.4
2017-Dec-16 04:00N 51°27' E 001°57'5 9.6
2017-Dec-16 03:30N 51°31' E 002°01'5 9.2
2017-Dec-16 03:00N 51°34' E 002°06'5 8.8
2017-Dec-16 02:30N 51°38' E 002°12'6 8.4
2017-Dec-16 01:48N 51°42' E 002°17'3 8.2
2017-Dec-16 01:29N 51°44' E 002°20'141 9.3
2017-Dec-15 10:19N 53°31' E 004°51'310.3
2017-Dec-15 10:00N 53°32' E 004°57'510.2
2017-Dec-15 09:29N 53°34' E 005°05'124 8.3
2017-Dec-14 18:31N 53°58' E 008°31'5 9.2
2017-Dec-14 18:00N 53°57' E 008°39'611.4
2017-Dec-14 17:30N 53°52' E 008°44'611.5
2017-Dec-14 17:00N 53°51' E 008°53'713.1
2017-Dec-14 16:30N 53°52' E 009°04'3 5.9
2017-Dec-14 16:00N 53°54' E 009°09'2 1.7
2017-Dec-14 15:00N 53°55' E 009°11'0 0.0
2017-Dec-14 14:30N 53°55' E 009°11'0 0.0
2017-Dec-14 14:00N 53°55' E 009°11'0 0.0
2017-Dec-14 13:30N 53°55' E 009°11'0 0.0
2017-Dec-14 13:00N 53°55' E 009°11'0 0.0
2017-Dec-14 12:30N 53°55' E 009°11'0 0.0
2017-Dec-14 12:00N 53°55' E 009°11'0 0.0
2017-Dec-14 11:30N 53°55' E 009°11'2 4.9
2017-Dec-14 11:00N 53°57' E 009°14'4 8.3
2017-Dec-14 10:30N 54°00' E 009°18'4 7.2
2017-Dec-14 09:59N 54°04' E 009°19'4 8.5
2017-Dec-14 09:30N 54°08' E 009°20'4 8.4
2017-Dec-14 09:00N 54°10' E 009°26'4 8.5
2017-Dec-14 08:30N 54°12' E 009°33'0 0.9
2017-Dec-14 08:01N 54°12' E 009°33'1 1.9
2017-Dec-14 07:31N 54°13' E 009°35'4 7.1
2017-Dec-14 07:00N 54°16' E 009°37'1 1.4
2017-Dec-14 06:30N 54°16' E 009°38'4 7.3
2017-Dec-14 06:00N 54°19' E 009°43'4 8.1
2017-Dec-14 05:28N 54°22' E 009°48'30 5.9
2017-Dec-14 00:20N 54°34' E 010°36'3 8.3
2017-Dec-14 00:00N 54°35' E 010°40'4 8.4
2017-Dec-13 23:30N 54°35' E 010°47'4 8.2
2017-Dec-13 23:00N 54°36' E 010°54'4 8.6
2017-Dec-13 22:30N 54°36' E 011°02'4 8.4
2017-Dec-13 22:00N 54°36' E 011°09'5 9.3
2017-Dec-13 21:30N 54°34' E 011°16'5 9.8
2017-Dec-13 21:00N 54°32' E 011°24'4 8.8
2017-Dec-13 20:30N 54°30' E 011°31'4 8.4
2017-Dec-13 20:00N 54°29' E 011°38'4 8.2
2017-Dec-13 19:30N 54°27' E 011°44'4 8.8
2017-Dec-13 19:00N 54°27' E 011°52'4 8.9
2017-Dec-13 18:31N 54°27' E 011°59'105 6.7
2017-Dec-13 02:47N 53°35' E 014°36'2 8.6
2017-Dec-13 02:29N 53°33' E 014°37'4 8.6
2017-Dec-13 02:01N 53°29' E 014°37'3 5.1
2017-Dec-13 01:30N 53°26' E 014°35'0 0.0
2017-Dec-13 00:59N 53°26' E 014°35'0 0.0
2017-Dec-13 00:29N 53°26' E 014°35'0 0.0
2017-Dec-12 23:59N 53°26' E 014°35'0 0.0
2017-Dec-12 23:29N 53°26' E 014°35'0 0.0
2017-Dec-12 22:59N 53°26' E 014°35'0 0.0
2017-Dec-12 22:29N 53°26' E 014°35'0 0.0
2017-Dec-12 21:59N 53°26' E 014°35'0 0.0
2017-Dec-12 21:29N 53°26' E 014°35'0 0.0
2017-Dec-12 20:59N 53°26' E 014°35'0 0.0
2017-Dec-12 20:26N 53°26' E 014°35'0 0.0
2017-Dec-12 19:59N 53°26' E 014°35'0 0.0
2017-Dec-12 19:29N 53°26' E 014°35'0 0.0
2017-Dec-12 18:59N 53°26' E 014°35'0 0.0
2017-Dec-12 18:29N 53°26' E 014°35'0 0.0
2017-Dec-12 17:59N 53°26' E 014°35'0 0.0
2017-Dec-12 17:29N 53°26' E 014°35'0 0.0
2017-Dec-12 16:59N 53°26' E 014°35'0 0.0
2017-Dec-12 16:29N 53°26' E 014°35'0 0.0
2017-Dec-12 15:59N 53°26' E 014°35'0 0.0
2017-Dec-12 15:26N 53°26' E 014°35'0 0.0
2017-Dec-12 14:59N 53°26' E 014°35'0 0.0
2017-Dec-12 14:29N 53°26' E 014°35'0 0.0
2017-Dec-12 13:59N 53°26' E 014°35'0 0.0
2017-Dec-12 13:29N 53°26' E 014°35'0 0.0
2017-Dec-12 12:56N 53°26' E 014°35'0 0.0
2017-Dec-12 12:29N 53°26' E 014°35'0 0.0
2017-Dec-12 11:59N 53°26' E 014°35'0 0.0
2017-Dec-12 11:29N 53°26' E 014°35'0 0.0
2017-Dec-12 10:59N 53°26' E 014°35'0 0.0
2017-Dec-12 10:29N 53°26' E 014°35'0 0.0
2017-Dec-12 09:59N 53°26' E 014°35'0 0.0
2017-Dec-12 09:29N 53°26' E 014°35'0 0.0
2017-Dec-12 08:59N 53°26' E 014°35'0 0.0
2017-Dec-12 08:29N 53°26' E 014°35'0 0.0
2017-Dec-12 07:59N 53°26' E 014°35'0 0.0
2017-Dec-12 07:29N 53°26' E 014°35'0 0.0
2017-Dec-12 06:59N 53°26' E 014°35'0 0.0
2017-Dec-12 06:29N 53°26' E 014°35'0 0.0
2017-Dec-12 05:59N 53°26' E 014°35'0 0.0
2017-Dec-12 05:29N 53°26' E 014°35'0 0.0
2017-Dec-12 04:59N 53°26' E 014°35'0 0.0
2017-Dec-12 04:29N 53°26' E 014°35'0 0.0
2017-Dec-12 03:59N 53°26' E 014°35'0 0.0
2017-Dec-12 03:29N 53°26' E 014°35'0 0.0
2017-Dec-12 02:59N 53°26' E 014°35'0 0.0
2017-Dec-12 02:29N 53°26' E 014°35'0 0.0
2017-Dec-12 01:59N 53°26' E 014°35'0 0.0
2017-Dec-12 01:29N 53°26' E 014°35'0 0.0
2017-Dec-12 00:59N 53°26' E 014°35'0 0.0
2017-Dec-12 00:29N 53°26' E 014°35'0 0.0
2017-Dec-11 23:59N 53°26' E 014°35'0 0.0
2017-Dec-11 23:29N 53°26' E 014°35'0 0.0
2017-Dec-11 22:59N 53°26' E 014°35'0 0.0
2017-Dec-11 22:29N 53°26' E 014°35'0 0.0
2017-Dec-11 21:59N 53°26' E 014°35'0 0.0
2017-Dec-11 21:29N 53°26' E 014°35'0 0.0
2017-Dec-11 20:59N 53°26' E 014°35'0 0.0
2017-Dec-11 20:29N 53°26' E 014°35'0 0.0
2017-Dec-11 19:59N 53°26' E 014°35'0 0.0
2017-Dec-11 19:29N 53°26' E 014°35'0 0.0
2017-Dec-11 18:59N 53°26' E 014°35'0 0.0
2017-Dec-11 18:29N 53°26' E 014°35'0 0.0
2017-Dec-11 17:59N 53°26' E 014°35'0 0.0
2017-Dec-11 17:29N 53°26' E 014°35'0 0.0
2017-Dec-11 16:59N 53°26' E 014°35'0 0.0
2017-Dec-11 16:29N 53°26' E 014°35'0 0.0
2017-Dec-11 15:59N 53°26' E 014°35'0 0.0
2017-Dec-11 15:29N 53°26' E 014°35'0 0.0
2017-Dec-11 14:59N 53°26' E 014°35'0 0.0
2017-Dec-11 14:29N 53°26' E 014°35'0 0.0
2017-Dec-11 13:59N 53°26' E 014°35'0 0.0
2017-Dec-11 13:29N 53°26' E 014°35'0 0.0
2017-Dec-11 12:59N 53°26' E 014°35'0 0.0
2017-Dec-11 12:29N 53°26' E 014°35'0 0.0
2017-Dec-11 11:59N 53°26' E 014°35'0 0.0
2017-Dec-11 11:29N 53°26' E 014°35'0 0.0
2017-Dec-11 10:59N 53°26' E 014°35'0 0.0
2017-Dec-11 10:29N 53°26' E 014°35'0 0.0
2017-Dec-11 09:59N 53°26' E 014°35'0 0.0
2017-Dec-11 09:29N 53°26' E 014°35'0 0.0
2017-Dec-11 08:59N 53°26' E 014°35'0 0.0
2017-Dec-11 08:29N 53°26' E 014°35'0 0.0
2017-Dec-11 07:59N 53°26' E 014°35'0 0.0
2017-Dec-11 07:29N 53°26' E 014°35'0 0.0
2017-Dec-11 06:59N 53°26' E 014°35'0 0.0
2017-Dec-11 06:29N 53°26' E 014°35'0 0.0
2017-Dec-11 05:59N 53°26' E 014°35'0 0.0
2017-Dec-11 05:29N 53°26' E 014°35'0 0.0
2017-Dec-11 04:59N 53°26' E 014°35'0 0.0
2017-Dec-11 04:29N 53°26' E 014°35'0 0.0
2017-Dec-11 03:59N 53°26' E 014°35'0 0.0
2017-Dec-11 03:29N 53°26' E 014°35'0 0.0
2017-Dec-11 02:59N 53°26' E 014°35'0 0.0
2017-Dec-11 02:29N 53°26' E 014°35'0 0.0
2017-Dec-11 01:59N 53°26' E 014°35'0 0.0
2017-Dec-11 01:29N 53°26' E 014°35'0 0.0
2017-Dec-11 00:59N 53°26' E 014°35'0 0.0
2017-Dec-11 00:29N 53°26' E 014°35'0 0.0
2017-Dec-10 23:59N 53°26' E 014°35'0 0.0
2017-Dec-10 23:29N 53°26' E 014°35'0 0.0
2017-Dec-10 22:59N 53°26' E 014°35'0 0.0
2017-Dec-10 22:29N 53°26' E 014°35'0 0.0
2017-Dec-10 21:59N 53°26' E 014°35'0 0.0
2017-Dec-10 21:29N 53°26' E 014°35'0 0.0
2017-Dec-10 20:59N 53°26' E 014°35'0 0.0
2017-Dec-10 20:29N 53°26' E 014°35'0 0.0
2017-Dec-10 19:59N 53°26' E 014°35'0 0.0
2017-Dec-10 19:29N 53°26' E 014°35'0 0.0
2017-Dec-10 18:59N 53°26' E 014°35'0 0.0
2017-Dec-10 18:29N 53°26' E 014°35'0 0.0
2017-Dec-10 17:59N 53°26' E 014°35'0 0.0
2017-Dec-10 17:29N 53°26' E 014°35'0 0.0
2017-Dec-10 16:59N 53°26' E 014°35'0 0.0
2017-Dec-10 16:29N 53°26' E 014°35'0 0.0
2017-Dec-10 15:59N 53°26' E 014°35'0 0.0
2017-Dec-10 15:29N 53°26' E 014°35'0 0.0
2017-Dec-10 14:59N 53°26' E 014°35'0 0.0
2017-Dec-10 14:29N 53°26' E 014°35'0 0.0
2017-Dec-10 13:59N 53°26' E 014°35'0 0.0
2017-Dec-10 13:29N 53°26' E 014°35'0 0.0
2017-Dec-10 12:59N 53°26' E 014°35'0 0.0
2017-Dec-10 12:29N 53°26' E 014°35'0 0.0
2017-Dec-10 11:59N 53°26' E 014°35'0 0.0
2017-Dec-10 11:29N 53°26' E 014°35'0 0.0
2017-Dec-10 10:59N 53°26' E 014°35'0 0.0
2017-Dec-10 10:29N 53°26' E 014°35'0 0.0
2017-Dec-10 09:59N 53°26' E 014°35'0 0.0
2017-Dec-10 09:29N 53°26' E 014°35'0 0.0
2017-Dec-10 08:59N 53°26' E 014°35'0 0.0
2017-Dec-10 08:29N 53°26' E 014°35'0 0.0
2017-Dec-10 07:59N 53°26' E 014°35'0 0.0
2017-Dec-10 07:29N 53°26' E 014°35'0 0.0
2017-Dec-10 06:59N 53°26' E 014°35'0 0.0
2017-Dec-10 06:29N 53°26' E 014°35'0 0.0
2017-Dec-10 05:59N 53°26' E 014°35'0 0.0
2017-Dec-10 05:29N 53°26' E 014°35'0 0.0
2017-Dec-10 04:59N 53°26' E 014°35'0 0.0
2017-Dec-10 04:29N 53°26' E 014°35'0 0.0
2017-Dec-10 03:59N 53°26' E 014°35'0 0.0
2017-Dec-10 03:29N 53°26' E 014°35'0 0.0
2017-Dec-10 02:59N 53°26' E 014°35'0 0.0
2017-Dec-10 02:29N 53°26' E 014°35'0 0.0
2017-Dec-10 01:59N 53°26' E 014°35'0 0.0
2017-Dec-10 01:29N 53°26' E 014°35'0 0.0
2017-Dec-10 00:59N 53°26' E 014°35'0 0.0
2017-Dec-10 00:29N 53°26' E 014°35'0 0.0
2017-Dec-09 23:59N 53°26' E 014°35'0 0.0
2017-Dec-09 23:29N 53°26' E 014°35'0 0.0
2017-Dec-09 22:59N 53°26' E 014°35'0 0.0
2017-Dec-09 22:29N 53°26' E 014°35'0 0.0
2017-Dec-09 21:59N 53°26' E 014°35'0 0.0
2017-Dec-09 21:29N 53°26' E 014°35'0 0.0
2017-Dec-09 20:56N 53°26' E 014°35'0 0.0
2017-Dec-09 20:29N 53°26' E 014°35'0 0.0
2017-Dec-09 19:59N 53°26' E 014°35'0 0.0
2017-Dec-09 19:29N 53°26' E 014°35'0 0.0
2017-Dec-09 18:59N 53°26' E 014°35'0 0.0
2017-Dec-09 18:29N 53°26' E 014°35'0 0.3
2017-Dec-09 18:00N 53°26' E 014°35'2 3.0
2017-Dec-09 17:30N 53°28' E 014°36'4 8.0
2017-Dec-09 17:00N 53°32' E 014°38'5 9.1
2017-Dec-09 16:30N 53°36' E 014°35'93 5.4
2017-Dec-08 23:23N 54°39' E 012°39'14 9.9
2017-Dec-08 22:01N 54°33' E 012°19'0 9.9
2017-Dec-08 22:00N 54°32' E 012°19'611.3
2017-Dec-08 21:30N 54°27' E 012°15'4 9.0
2017-Dec-08 21:00N 54°25' E 012°08'2810.6
2017-Dec-08 18:24N 54°32' E 011°22'411.2
2017-Dec-08 18:00N 54°34' E 011°15'511.0
2017-Dec-08 17:30N 54°35' E 011°06'611.3
2017-Dec-08 17:00N 54°35' E 010°56'510.8
2017-Dec-08 16:30N 54°34' E 010°47'510.7
2017-Dec-08 16:00N 54°34' E 010°38'611.0
2017-Dec-08 15:30N 54°32' E 010°29'5 1.4
2017-Dec-08 11:50N 54°32' E 010°20'20 5.7
2017-Dec-08 08:17N 54°22' E 009°50'2 7.8
2017-Dec-08 08:00N 54°21' E 009°47'1 1.9
2017-Dec-08 07:30N 54°21' E 009°45'2 4.5
2017-Dec-08 07:00N 54°19' E 009°43'4 7.0
2017-Dec-08 06:30N 54°17' E 009°38'4 7.9
2017-Dec-08 06:00N 54°13' E 009°36'4 8.5
2017-Dec-08 05:30N 54°11' E 009°29'4 8.6
2017-Dec-08 05:00N 54°09' E 009°23'4 7.9
2017-Dec-08 04:30N 54°06' E 009°20'3 6.7
2017-Dec-08 04:00N 54°02' E 009°18'4 7.6
2017-Dec-08 03:30N 53°59' E 009°17'3 5.8
2017-Dec-08 03:00N 53°57' E 009°14'4 7.3
2017-Dec-08 02:30N 53°54' E 009°09'0 0.7
2017-Dec-08 02:00N 53°54' E 009°09'1 1.1
2017-Dec-08 01:30N 53°53' E 009°08'1 1.5
2017-Dec-08 01:00N 53°53' E 009°07'0 0.1
2017-Dec-08 00:30N 53°53' E 009°07'1 2.0
2017-Dec-08 00:00N 53°52' E 009°05'611.2
2017-Dec-07 23:30N 53°51' E 008°56'612.1
2017-Dec-07 23:01N 53°51' E 008°46'510.8
2017-Dec-07 22:30N 53°55' E 008°40'511.1
2017-Dec-07 22:00N 53°58' E 008°33'611.6
2017-Dec-07 21:30N 53°59' E 008°23'713.4
2017-Dec-07 21:00N 53°60' E 008°12'612.7
2017-Dec-07 20:31N 53°57' E 008°02'612.1
2017-Dec-07 20:00N 53°53' E 007°53'610.4
2017-Dec-07 19:27N 53°51' E 008°02'613.0
2017-Dec-07 19:00N 53°47' E 008°09'714.1
2017-Dec-07 18:30N 53°43' E 008°18'714.7
2017-Dec-07 18:00N 53°38' E 008°28'714.5
2017-Dec-07 17:30N 53°32' E 008°34'612.4
2017-Dec-07 17:00N 53°26' E 008°30'612.6
2017-Dec-07 16:30N 53°20' E 008°29'612.1
2017-Dec-07 16:00N 53°14' E 008°29'510.3
2017-Dec-07 15:31N 53°10' E 008°35'5 9.1
2017-Dec-07 15:01N 53°07' E 008°41'1 1.9
2017-Dec-07 14:30N 53°07' E 008°43'0 0.7
2017-Dec-07 14:00N 53°07' E 008°43'0 0.0
2017-Dec-07 13:30N 53°07' E 008°43'0 0.0
2017-Dec-07 13:00N 53°07' E 008°43'0 0.0
2017-Dec-07 12:30N 53°07' E 008°43'0 0.0
2017-Dec-07 12:00N 53°07' E 008°43'0 0.0
2017-Dec-07 11:30N 53°07' E 008°43'0 0.0
2017-Dec-07 11:00N 53°07' E 008°43'0 0.0
2017-Dec-07 10:30N 53°07' E 008°43'0 0.0
2017-Dec-07 10:00N 53°07' E 008°43'0 0.0
2017-Dec-07 09:30N 53°07' E 008°43'0 0.0
2017-Dec-07 09:00N 53°07' E 008°43'0 0.0
2017-Dec-07 08:30N 53°07' E 008°43'0 0.0
2017-Dec-07 08:00N 53°07' E 008°43'0 0.0
2017-Dec-07 07:30N 53°07' E 008°43'0 0.0
2017-Dec-07 07:00N 53°07' E 008°43'0 0.0
2017-Dec-07 06:30N 53°07' E 008°43'0 0.0
2017-Dec-07 06:00N 53°07' E 008°43'0 0.0
2017-Dec-07 05:30N 53°07' E 008°43'0 0.0
2017-Dec-07 05:00N 53°07' E 008°43'0 0.0
2017-Dec-07 04:30N 53°07' E 008°43'0 0.0
2017-Dec-07 04:00N 53°07' E 008°43'0 0.0
2017-Dec-07 03:30N 53°07' E 008°43'0 0.0
2017-Dec-07 03:00N 53°07' E 008°43'0 0.0
2017-Dec-07 02:30N 53°07' E 008°43'0 0.0
2017-Dec-07 02:00N 53°07' E 008°43'0 0.0
2017-Dec-07 01:30N 53°07' E 008°43'0 0.0
2017-Dec-07 01:00N 53°07' E 008°43'0 0.0
2017-Dec-07 00:30N 53°07' E 008°43'0 0.0
2017-Dec-07 00:00N 53°07' E 008°43'0 0.0
2017-Dec-06 23:30N 53°07' E 008°43'0 0.0
2017-Dec-06 23:00N 53°07' E 008°43'0 0.0
2017-Dec-06 22:30N 53°07' E 008°43'0 0.0
2017-Dec-06 22:00N 53°07' E 008°43'0 0.0
2017-Dec-06 21:30N 53°07' E 008°43'0 0.0
2017-Dec-06 21:00N 53°07' E 008°43'  
Track history (hours):
 
Tides and Currents Weather Stations Pressure Air Temp Water Temp Dewpoint Dewpoint Depression Visibility Wind Speed Wind Dir Waves Ship Positions

Johann

Last reported at 2017-Dec-16 11:01 UTC. Time now 2017-Dec-16 11:09 UTC.
Position N 50°38' E 000°33'.

Length 115 m; draft 6.1 m.

Type: Cargo ship. MMSI: 636092297.

Date/timePositionNaut miles runAvg speedWind from/ knotsBaromVisibWave heightAir tempDewpointWater temp
2017-Dec-16 11:01N 50°38' E 000°33'5 9.6
2017-Dec-16 10:30N 50°41' E 000°39'5 9.3
2017-Dec-16 10:00N 50°43' E 000°45'5 9.1
2017-Dec-16 09:30N 50°46' E 000°51'5 9.0
2017-Dec-16 09:00N 50°49' E 000°56'10 9.3
2017-Dec-16 07:55N 50°55' E 001°09'410.1
2017-Dec-16 07:30N 50°58' E 001°14'611.3
2017-Dec-16 07:00N 51°01' E 001°21'612.3
2017-Dec-16 06:30N 51°05' E 001°28'612.8
2017-Dec-16 06:00N 51°09' E 001°36'612.0
2017-Dec-16 05:30N 51°13' E 001°44'611.7
2017-Dec-16 05:00N 51°18' E 001°49'511.0
2017-Dec-16 04:30N 51°23' E 001°53'510.4
2017-Dec-16 04:00N 51°27' E 001°57'5 9.6
2017-Dec-16 03:30N 51°31' E 002°01'5 9.2
2017-Dec-16 03:00N 51°34' E 002°06'5 8.8
2017-Dec-16 02:30N 51°38' E 002°12'6 8.4
2017-Dec-16 01:48N 51°42' E 002°17'3 8.2
2017-Dec-16 01:29N 51°44' E 002°20'141 9.3
2017-Dec-15 10:19N 53°31' E 004°51'310.3
2017-Dec-15 10:00N 53°32' E 004°57'510.2
2017-Dec-15 09:29N 53°34' E 005°05'124 8.3
2017-Dec-14 18:31N 53°58' E 008°31'5 9.2
2017-Dec-14 18:00N 53°57' E 008°39'611.4
2017-Dec-14 17:30N 53°52' E 008°44'611.5
2017-Dec-14 17:00N 53°51' E 008°53'713.1
2017-Dec-14 16:30N 53°52' E 009°04'3 5.9
2017-Dec-14 16:00N 53°54' E 009°09'2 1.7
2017-Dec-14 15:00N 53°55' E 009°11'0 0.0
2017-Dec-14 14:30N 53°55' E 009°11'0 0.0
2017-Dec-14 14:00N 53°55' E 009°11'0 0.0
2017-Dec-14 13:30N 53°55' E 009°11'0 0.0
2017-Dec-14 13:00N 53°55' E 009°11'0 0.0
2017-Dec-14 12:30N 53°55' E 009°11'0 0.0
2017-Dec-14 12:00N 53°55' E 009°11'0 0.0
2017-Dec-14 11:30N 53°55' E 009°11'2 4.9
2017-Dec-14 11:00N 53°57' E 009°14'4 8.3
2017-Dec-14 10:30N 54°00' E 009°18'4 7.2
2017-Dec-14 09:59N 54°04' E 009°19'4 8.5
2017-Dec-14 09:30N 54°08' E 009°20'4 8.4
2017-Dec-14 09:00N 54°10' E 009°26'4 8.5
2017-Dec-14 08:30N 54°12' E 009°33'0 0.9
2017-Dec-14 08:01N 54°12' E 009°33'1 1.9
2017-Dec-14 07:31N 54°13' E 009°35'4 7.1
2017-Dec-14 07:00N 54°16' E 009°37'1 1.4
2017-Dec-14 06:30N 54°16' E 009°38'4 7.3
2017-Dec-14 06:00N 54°19' E 009°43'4 8.1
2017-Dec-14 05:28N 54°22' E 009°48'30 5.9
2017-Dec-14 00:20N 54°34' E 010°36'3 8.3
2017-Dec-14 00:00N 54°35' E 010°40'4 8.4
2017-Dec-13 23:30N 54°35' E 010°47'4 8.2
2017-Dec-13 23:00N 54°36' E 010°54'4 8.6
2017-Dec-13 22:30N 54°36' E 011°02'4 8.4
2017-Dec-13 22:00N 54°36' E 011°09'5 9.3
2017-Dec-13 21:30N 54°34' E 011°16'5 9.8
2017-Dec-13 21:00N 54°32' E 011°24'4 8.8
2017-Dec-13 20:30N 54°30' E 011°31'4 8.4
2017-Dec-13 20:00N 54°29' E 011°38'4 8.2
2017-Dec-13 19:30N 54°27' E 011°44'4 8.8
2017-Dec-13 19:00N 54°27' E 011°52'4 8.9
2017-Dec-13 18:31N 54°27' E 011°59'105 6.7
2017-Dec-13 02:47N 53°35' E 014°36'2 8.6
2017-Dec-13 02:29N 53°33' E 014°37'4 8.6
2017-Dec-13 02:01N 53°29' E 014°37'3 5.1
2017-Dec-13 01:30N 53°26' E 014°35'0 0.0
2017-Dec-13 00:59N 53°26' E 014°35'0 0.0
2017-Dec-13 00:29N 53°26' E 014°35'0 0.0
2017-Dec-12 23:59N 53°26' E 014°35'0 0.0
2017-Dec-12 23:29N 53°26' E 014°35'0 0.0
2017-Dec-12 22:59N 53°26' E 014°35'0 0.0
2017-Dec-12 22:29N 53°26' E 014°35'0 0.0
2017-Dec-12 21:59N 53°26' E 014°35'0 0.0
2017-Dec-12 21:29N 53°26' E 014°35'0 0.0
2017-Dec-12 20:59N 53°26' E 014°35'0 0.0
2017-Dec-12 20:26N 53°26' E 014°35'0 0.0
2017-Dec-12 19:59N 53°26' E 014°35'0 0.0
2017-Dec-12 19:29N 53°26' E 014°35'0 0.0
2017-Dec-12 18:59N 53°26' E 014°35'0 0.0
2017-Dec-12 18:29N 53°26' E 014°35'0 0.0
2017-Dec-12 17:59N 53°26' E 014°35'0 0.0
2017-Dec-12 17:29N 53°26' E 014°35'0 0.0
2017-Dec-12 16:59N 53°26' E 014°35'0 0.0
2017-Dec-12 16:29N 53°26' E 014°35'0 0.0
2017-Dec-12 15:59N 53°26' E 014°35'0 0.0
2017-Dec-12 15:26N 53°26' E 014°35'0 0.0
2017-Dec-12 14:59N 53°26' E 014°35'0 0.0
2017-Dec-12 14:29N 53°26' E 014°35'0 0.0
2017-Dec-12 13:59N 53°26' E 014°35'0 0.0
2017-Dec-12 13:29N 53°26' E 014°35'0 0.0
2017-Dec-12 12:56N 53°26' E 014°35'0 0.0
2017-Dec-12 12:29N 53°26' E 014°35'0 0.0
2017-Dec-12 11:59N 53°26' E 014°35'0 0.0
2017-Dec-12 11:29N 53°26' E 014°35'0 0.0
2017-Dec-12 10:59N 53°26' E 014°35'0 0.0
2017-Dec-12 10:29N 53°26' E 014°35'0 0.0
2017-Dec-12 09:59N 53°26' E 014°35'0 0.0
2017-Dec-12 09:29N 53°26' E 014°35'0 0.0
2017-Dec-12 08:59N 53°26' E 014°35'0 0.0
2017-Dec-12 08:29N 53°26' E 014°35'0 0.0
2017-Dec-12 07:59N 53°26' E 014°35'0 0.0
2017-Dec-12 07:29N 53°26' E 014°35'0 0.0
2017-Dec-12 06:59N 53°26' E 014°35'0 0.0
2017-Dec-12 06:29N 53°26' E 014°35'0 0.0
2017-Dec-12 05:59N 53°26' E 014°35'0 0.0
2017-Dec-12 05:29N 53°26' E 014°35'0 0.0
2017-Dec-12 04:59N 53°26' E 014°35'0 0.0
2017-Dec-12 04:29N 53°26' E 014°35'0 0.0
2017-Dec-12 03:59N 53°26' E 014°35'0 0.0
2017-Dec-12 03:29N 53°26' E 014°35'0 0.0
2017-Dec-12 02:59N 53°26' E 014°35'0 0.0
2017-Dec-12 02:29N 53°26' E 014°35'0 0.0
2017-Dec-12 01:59N 53°26' E 014°35'0 0.0
2017-Dec-12 01:29N 53°26' E 014°35'0 0.0
2017-Dec-12 00:59N 53°26' E 014°35'0 0.0
2017-Dec-12 00:29N 53°26' E 014°35'0 0.0
2017-Dec-11 23:59N 53°26' E 014°35'0 0.0
2017-Dec-11 23:29N 53°26' E 014°35'0 0.0
2017-Dec-11 22:59N 53°26' E 014°35'0 0.0
2017-Dec-11 22:29N 53°26' E 014°35'0 0.0
2017-Dec-11 21:59N 53°26' E 014°35'0 0.0
2017-Dec-11 21:29N 53°26' E 014°35'0 0.0
2017-Dec-11 20:59N 53°26' E 014°35'0 0.0
2017-Dec-11 20:29N 53°26' E 014°35'0 0.0
2017-Dec-11 19:59N 53°26' E 014°35'0 0.0
2017-Dec-11 19:29N 53°26' E 014°35'0 0.0
2017-Dec-11 18:59N 53°26' E 014°35'0 0.0
2017-Dec-11 18:29N 53°26' E 014°35'0 0.0
2017-Dec-11 17:59N 53°26' E 014°35'0 0.0
2017-Dec-11 17:29N 53°26' E 014°35'0 0.0
2017-Dec-11 16:59N 53°26' E 014°35'0 0.0
2017-Dec-11 16:29N 53°26' E 014°35'0 0.0
2017-Dec-11 15:59N 53°26' E 014°35'0 0.0
2017-Dec-11 15:29N 53°26' E 014°35'0 0.0
2017-Dec-11 14:59N 53°26' E 014°35'0 0.0
2017-Dec-11 14:29N 53°26' E 014°35'0 0.0
2017-Dec-11 13:59N 53°26' E 014°35'0 0.0
2017-Dec-11 13:29N 53°26' E 014°35'0 0.0
2017-Dec-11 12:59N 53°26' E 014°35'0 0.0
2017-Dec-11 12:29N 53°26' E 014°35'0 0.0
2017-Dec-11 11:59N 53°26' E 014°35'0 0.0
2017-Dec-11 11:29N 53°26' E 014°35'0 0.0
2017-Dec-11 10:59N 53°26' E 014°35'0 0.0
2017-Dec-11 10:29N 53°26' E 014°35'0 0.0
2017-Dec-11 09:59N 53°26' E 014°35'0 0.0
2017-Dec-11 09:29N 53°26' E 014°35'0 0.0
2017-Dec-11 08:59N 53°26' E 014°35'0 0.0
2017-Dec-11 08:29N 53°26' E 014°35'0 0.0
2017-Dec-11 07:59N 53°26' E 014°35'0 0.0
2017-Dec-11 07:29N 53°26' E 014°35'0 0.0
2017-Dec-11 06:59N 53°26' E 014°35'0 0.0
2017-Dec-11 06:29N 53°26' E 014°35'0 0.0
2017-Dec-11 05:59N 53°26' E 014°35'0 0.0
2017-Dec-11 05:29N 53°26' E 014°35'0 0.0
2017-Dec-11 04:59N 53°26' E 014°35'0 0.0
2017-Dec-11 04:29N 53°26' E 014°35'0 0.0
2017-Dec-11 03:59N 53°26' E 014°35'0 0.0
2017-Dec-11 03:29N 53°26' E 014°35'0 0.0
2017-Dec-11 02:59N 53°26' E 014°35'0 0.0
2017-Dec-11 02:29N 53°26' E 014°35'0 0.0
2017-Dec-11 01:59N 53°26' E 014°35'0 0.0
2017-Dec-11 01:29N 53°26' E 014°35'0 0.0
2017-Dec-11 00:59N 53°26' E 014°35'0 0.0
2017-Dec-11 00:29N 53°26' E 014°35'0 0.0
2017-Dec-10 23:59N 53°26' E 014°35'0 0.0
2017-Dec-10 23:29N 53°26' E 014°35'0 0.0
2017-Dec-10 22:59N 53°26' E 014°35'0 0.0
2017-Dec-10 22:29N 53°26' E 014°35'0 0.0
2017-Dec-10 21:59N 53°26' E 014°35'0 0.0
2017-Dec-10 21:29N 53°26' E 014°35'0 0.0
2017-Dec-10 20:59N 53°26' E 014°35'0 0.0
2017-Dec-10 20:29N 53°26' E 014°35'0 0.0
2017-Dec-10 19:59N 53°26' E 014°35'0 0.0
2017-Dec-10 19:29N 53°26' E 014°35'0 0.0
2017-Dec-10 18:59N 53°26' E 014°35'0 0.0
2017-Dec-10 18:29N 53°26' E 014°35'0 0.0
2017-Dec-10 17:59N 53°26' E 014°35'0 0.0
2017-Dec-10 17:29N 53°26' E 014°35'0 0.0
2017-Dec-10 16:59N 53°26' E 014°35'0 0.0
2017-Dec-10 16:29N 53°26' E 014°35'0 0.0
2017-Dec-10 15:59N 53°26' E 014°35'0 0.0
2017-Dec-10 15:29N 53°26' E 014°35'0 0.0
2017-Dec-10 14:59N 53°26' E 014°35'0 0.0
2017-Dec-10 14:29N 53°26' E 014°35'0 0.0
2017-Dec-10 13:59N 53°26' E 014°35'0 0.0
2017-Dec-10 13:29N 53°26' E 014°35'0 0.0
2017-Dec-10 12:59N 53°26' E 014°35'0 0.0
2017-Dec-10 12:29N 53°26' E 014°35'0 0.0
2017-Dec-10 11:59N 53°26' E 014°35'0 0.0
2017-Dec-10 11:29N 53°26' E 014°35'0 0.0
2017-Dec-10 10:59N 53°26' E 014°35'0 0.0
2017-Dec-10 10:29N 53°26' E 014°35'0 0.0
2017-Dec-10 09:59N 53°26' E 014°35'0 0.0
2017-Dec-10 09:29N 53°26' E 014°35'0 0.0
2017-Dec-10 08:59N 53°26' E 014°35'0 0.0
2017-Dec-10 08:29N 53°26' E 014°35'0 0.0
2017-Dec-10 07:59N 53°26' E 014°35'0 0.0
2017-Dec-10 07:29N 53°26' E 014°35'0 0.0
2017-Dec-10 06:59N 53°26' E 014°35'0 0.0
2017-Dec-10 06:29N 53°26' E 014°35'0 0.0
2017-Dec-10 05:59N 53°26' E 014°35'0 0.0
2017-Dec-10 05:29N 53°26' E 014°35'0 0.0
2017-Dec-10 04:59N 53°26' E 014°35'0 0.0
2017-Dec-10 04:29N 53°26' E 014°35'0 0.0
2017-Dec-10 03:59N 53°26' E 014°35'0 0.0
2017-Dec-10 03:29N 53°26' E 014°35'0 0.0
2017-Dec-10 02:59N 53°26' E 014°35'0 0.0
2017-Dec-10 02:29N 53°26' E 014°35'0 0.0
2017-Dec-10 01:59N 53°26' E 014°35'0 0.0
2017-Dec-10 01:29N 53°26' E 014°35'0 0.0
2017-Dec-10 00:59N 53°26' E 014°35'0 0.0
2017-Dec-10 00:29N 53°26' E 014°35'0 0.0
2017-Dec-09 23:59N 53°26' E 014°35'0 0.0
2017-Dec-09 23:29N 53°26' E 014°35'0 0.0
2017-Dec-09 22:59N 53°26' E 014°35'0 0.0
2017-Dec-09 22:29N 53°26' E 014°35'0 0.0
2017-Dec-09 21:59N 53°26' E 014°35'0 0.0
2017-Dec-09 21:29N 53°26' E 014°35'0 0.0
2017-Dec-09 20:56N 53°26' E 014°35'0 0.0
2017-Dec-09 20:29N 53°26' E 014°35'0 0.0
2017-Dec-09 19:59N 53°26' E 014°35'0 0.0
2017-Dec-09 19:29N 53°26' E 014°35'0 0.0
2017-Dec-09 18:59N 53°26' E 014°35'0 0.0
2017-Dec-09 18:29N 53°26' E 014°35'0 0.3
2017-Dec-09 18:00N 53°26' E 014°35'2 3.0
2017-Dec-09 17:30N 53°28' E 014°36'4 8.0
2017-Dec-09 17:00N 53°32' E 014°38'5 9.1
2017-Dec-09 16:30N 53°36' E 014°35'93 5.4
2017-Dec-08 23:23N 54°39' E 012°39'14 9.9
2017-Dec-08 22:01N 54°33' E 012°19'0 9.9
2017-Dec-08 22:00N 54°32' E 012°19'611.3
2017-Dec-08 21:30N 54°27' E 012°15'4 9.0
2017-Dec-08 21:00N 54°25' E 012°08'2810.6
2017-Dec-08 18:24N 54°32' E 011°22'411.2
2017-Dec-08 18:00N 54°34' E 011°15'511.0
2017-Dec-08 17:30N 54°35' E 011°06'611.3
2017-Dec-08 17:00N 54°35' E 010°56'510.8
2017-Dec-08 16:30N 54°34' E 010°47'510.7
2017-Dec-08 16:00N 54°34' E 010°38'611.0
2017-Dec-08 15:30N 54°32' E 010°29'5 1.4
2017-Dec-08 11:50N 54°32' E 010°20'20 5.7
2017-Dec-08 08:17N 54°22' E 009°50'2 7.8
2017-Dec-08 08:00N 54°21' E 009°47'1 1.9
2017-Dec-08 07:30N 54°21' E 009°45'2 4.5
2017-Dec-08 07:00N 54°19' E 009°43'4 7.0
2017-Dec-08 06:30N 54°17' E 009°38'4 7.9
2017-Dec-08 06:00N 54°13' E 009°36'4 8.5
2017-Dec-08 05:30N 54°11' E 009°29'4 8.6
2017-Dec-08 05:00N 54°09' E 009°23'4 7.9
2017-Dec-08 04:30N 54°06' E 009°20'3 6.7
2017-Dec-08 04:00N 54°02' E 009°18'4 7.6
2017-Dec-08 03:30N 53°59' E 009°17'3 5.8
2017-Dec-08 03:00N 53°57' E 009°14'4 7.3
2017-Dec-08 02:30N 53°54' E 009°09'0 0.7
2017-Dec-08 02:00N 53°54' E 009°09'1 1.1
2017-Dec-08 01:30N 53°53' E 009°08'1 1.5
2017-Dec-08 01:00N 53°53' E 009°07'0 0.1
2017-Dec-08 00:30N 53°53' E 009°07'1 2.0
2017-Dec-08 00:00N 53°52' E 009°05'611.2
2017-Dec-07 23:30N 53°51' E 008°56'612.1
2017-Dec-07 23:01N 53°51' E 008°46'510.8
2017-Dec-07 22:30N 53°55' E 008°40'511.1
2017-Dec-07 22:00N 53°58' E 008°33'611.6
2017-Dec-07 21:30N 53°59' E 008°23'713.4
2017-Dec-07 21:00N 53°60' E 008°12'612.7
2017-Dec-07 20:31N 53°57' E 008°02'612.1
2017-Dec-07 20:00N 53°53' E 007°53'610.4
2017-Dec-07 19:27N 53°51' E 008°02'613.0
2017-Dec-07 19:00N 53°47' E 008°09'714.1
2017-Dec-07 18:30N 53°43' E 008°18'714.7
2017-Dec-07 18:00N 53°38' E 008°28'714.5
2017-Dec-07 17:30N 53°32' E 008°34'612.4
2017-Dec-07 17:00N 53°26' E 008°30'612.6
2017-Dec-07 16:30N 53°20' E 008°29'612.1
2017-Dec-07 16:00N 53°14' E 008°29'510.3
2017-Dec-07 15:31N 53°10' E 008°35'5 9.1
2017-Dec-07 15:01N 53°07' E 008°41'1 1.9
2017-Dec-07 14:30N 53°07' E 008°43'0 0.7
2017-Dec-07 14:00N 53°07' E 008°43'0 0.0
2017-Dec-07 13:30N 53°07' E 008°43'0 0.0
2017-Dec-07 13:00N 53°07' E 008°43'0 0.0
2017-Dec-07 12:30N 53°07' E 008°43'0 0.0
2017-Dec-07 12:00N 53°07' E 008°43'0 0.0
2017-Dec-07 11:30N 53°07' E 008°43'0 0.0
2017-Dec-07 11:00N 53°07' E 008°43'0 0.0
2017-Dec-07 10:30N 53°07' E 008°43'0 0.0
2017-Dec-07 10:00N 53°07' E 008°43'0 0.0
2017-Dec-07 09:30N 53°07' E 008°43'0 0.0
2017-Dec-07 09:00N 53°07' E 008°43'0 0.0
2017-Dec-07 08:30N 53°07' E 008°43'0 0.0
2017-Dec-07 08:00N 53°07' E 008°43'0 0.0
2017-Dec-07 07:30N 53°07' E 008°43'0 0.0
2017-Dec-07 07:00N 53°07' E 008°43'0 0.0
2017-Dec-07 06:30N 53°07' E 008°43'0 0.0
2017-Dec-07 06:00N 53°07' E 008°43'0 0.0
2017-Dec-07 05:30N 53°07' E 008°43'0 0.0
2017-Dec-07 05:00N 53°07' E 008°43'0 0.0
2017-Dec-07 04:30N 53°07' E 008°43'0 0.0
2017-Dec-07 04:00N 53°07' E 008°43'0 0.0
2017-Dec-07 03:30N 53°07' E 008°43'0 0.0
2017-Dec-07 03:00N 53°07' E 008°43'0 0.0
2017-Dec-07 02:30N 53°07' E 008°43'0 0.0
2017-Dec-07 02:00N 53°07' E 008°43'0 0.0
2017-Dec-07 01:30N 53°07' E 008°43'0 0.0
2017-Dec-07 01:00N 53°07' E 008°43'0 0.0
2017-Dec-07 00:30N 53°07' E 008°43'0 0.0
2017-Dec-07 00:00N 53°07' E 008°43'0 0.0
2017-Dec-06 23:30N 53°07' E 008°43'0 0.0
2017-Dec-06 23:00N 53°07' E 008°43'0 0.0
2017-Dec-06 22:30N 53°07' E 008°43'0 0.0
2017-Dec-06 22:00N 53°07' E 008°43'0 0.0
2017-Dec-06 21:30N 53°07' E 008°43'0 0.0
2017-Dec-06 21:00N 53°07' E 008°43'  

Dump ship's entire track history